sensor_id;sensor_type;location;lat;lon;timestamp;P1;durP1;ratioP1;P2;durP2;ratioP2
37655;SDS011;23498;50.958;3.124;2023-08-07T00:00:02;6.18;;;3.15;;
37655;SDS011;23498;50.958;3.124;2023-08-07T00:02:28;6.93;;;2.80;;
37655;SDS011;23498;50.958;3.124;2023-08-07T00:04:54;9.02;;;3.08;;
37655;SDS011;23498;50.958;3.124;2023-08-07T00:07:20;6.47;;;2.67;;
37655;SDS011;23498;50.958;3.124;2023-08-07T00:09:46;5.43;;;2.75;;
37655;SDS011;23498;50.958;3.124;2023-08-07T00:12:12;6.35;;;2.97;;
37655;SDS011;23498;50.958;3.124;2023-08-07T00:14:38;6.68;;;2.85;;
37655;SDS011;23498;50.958;3.124;2023-08-07T00:17:04;7.70;;;2.83;;
37655;SDS011;23498;50.958;3.124;2023-08-07T00:19:31;5.82;;;2.78;;
37655;SDS011;23498;50.958;3.124;2023-08-07T00:21:57;8.90;;;3.28;;
37655;SDS011;23498;50.958;3.124;2023-08-07T00:24:23;8.52;;;2.70;;
37655;SDS011;23498;50.958;3.124;2023-08-07T00:26:49;8.85;;;3.00;;
37655;SDS011;23498;50.958;3.124;2023-08-07T00:29:15;6.78;;;2.85;;
37655;SDS011;23498;50.958;3.124;2023-08-07T00:31:41;7.57;;;3.20;;
37655;SDS011;23498;50.958;3.124;2023-08-07T00:34:07;8.38;;;3.20;;
37655;SDS011;23498;50.958;3.124;2023-08-07T00:36:34;7.82;;;3.47;;
37655;SDS011;23498;50.958;3.124;2023-08-07T00:39:00;7.97;;;3.33;;
37655;SDS011;23498;50.958;3.124;2023-08-07T00:41:28;8.30;;;3.55;;
37655;SDS011;23498;50.958;3.124;2023-08-07T00:43:54;7.32;;;3.20;;
37655;SDS011;23498;50.958;3.124;2023-08-07T00:46:20;6.40;;;2.95;;
37655;SDS011;23498;50.958;3.124;2023-08-07T00:48:47;8.77;;;3.65;;
37655;SDS011;23498;50.958;3.124;2023-08-07T00:51:13;7.72;;;3.20;;
37655;SDS011;23498;50.958;3.124;2023-08-07T00:53:39;8.88;;;3.45;;
37655;SDS011;23498;50.958;3.124;2023-08-07T00:56:05;10.68;;;3.72;;
37655;SDS011;23498;50.958;3.124;2023-08-07T00:58:32;8.35;;;3.88;;
37655;SDS011;23498;50.958;3.124;2023-08-07T01:00:58;7.18;;;3.55;;
37655;SDS011;23498;50.958;3.124;2023-08-07T01:03:25;8.50;;;4.18;;
37655;SDS011;23498;50.958;3.124;2023-08-07T01:05:51;6.40;;;3.42;;
37655;SDS011;23498;50.958;3.124;2023-08-07T01:08:17;9.52;;;3.85;;
37655;SDS011;23498;50.958;3.124;2023-08-07T01:15:58;8.07;;;3.67;;
37655;SDS011;23498;50.958;3.124;2023-08-07T01:18:26;11.75;;;3.80;;
37655;SDS011;23498;50.958;3.124;2023-08-07T01:20:53;6.55;;;3.47;;
37655;SDS011;23498;50.958;3.124;2023-08-07T01:23:19;10.00;;;4.15;;
37655;SDS011;23498;50.958;3.124;2023-08-07T01:25:45;7.28;;;3.28;;
37655;SDS011;23498;50.958;3.124;2023-08-07T01:28:15;8.10;;;3.80;;
37655;SDS011;23498;50.958;3.124;2023-08-07T01:30:44;6.70;;;3.80;;
37655;SDS011;23498;50.958;3.124;2023-08-07T01:33:27;7.88;;;3.45;;
37655;SDS011;23498;50.958;3.124;2023-08-07T01:36:01;9.02;;;3.97;;
37655;SDS011;23498;50.958;3.124;2023-08-07T01:38:28;9.23;;;4.22;;
37655;SDS011;23498;50.958;3.124;2023-08-07T01:40:54;8.50;;;4.03;;
37655;SDS011;23498;50.958;3.124;2023-08-07T01:43:22;9.35;;;4.10;;
37655;SDS011;23498;50.958;3.124;2023-08-07T01:45:48;9.20;;;4.00;;
37655;SDS011;23498;50.958;3.124;2023-08-07T01:48:14;8.23;;;3.85;;
37655;SDS011;23498;50.958;3.124;2023-08-07T01:50:40;9.63;;;4.15;;
37655;SDS011;23498;50.958;3.124;2023-08-07T01:53:06;6.72;;;3.75;;
37655;SDS011;23498;50.958;3.124;2023-08-07T01:55:32;9.43;;;3.85;;
37655;SDS011;23498;50.958;3.124;2023-08-07T01:57:58;9.85;;;4.68;;
37655;SDS011;23498;50.958;3.124;2023-08-07T02:00:24;8.38;;;4.05;;
37655;SDS011;23498;50.958;3.124;2023-08-07T02:02:50;10.32;;;4.30;;
37655;SDS011;23498;50.958;3.124;2023-08-07T02:05:16;7.90;;;3.97;;
37655;SDS011;23498;50.958;3.124;2023-08-07T02:07:42;7.97;;;4.45;;
37655;SDS011;23498;50.958;3.124;2023-08-07T02:10:09;9.65;;;4.50;;
37655;SDS011;23498;50.958;3.124;2023-08-07T02:12:35;8.82;;;4.70;;
37655;SDS011;23498;50.958;3.124;2023-08-07T02:15:01;10.57;;;3.95;;
37655;SDS011;23498;50.958;3.124;2023-08-07T02:17:27;8.88;;;4.43;;
37655;SDS011;23498;50.958;3.124;2023-08-07T02:19:55;8.02;;;4.20;;
37655;SDS011;23498;50.958;3.124;2023-08-07T02:22:21;9.18;;;4.32;;
37655;SDS011;23498;50.958;3.124;2023-08-07T02:24:47;8.68;;;3.95;;
37655;SDS011;23498;50.958;3.124;2023-08-07T02:27:13;7.70;;;4.10;;
37655;SDS011;23498;50.958;3.124;2023-08-07T02:29:39;8.38;;;3.70;;
37655;SDS011;23498;50.958;3.124;2023-08-07T02:32:05;9.55;;;3.97;;
37655;SDS011;23498;50.958;3.124;2023-08-07T02:34:31;6.85;;;4.22;;
37655;SDS011;23498;50.958;3.124;2023-08-07T02:36:57;7.72;;;3.50;;
37655;SDS011;23498;50.958;3.124;2023-08-07T02:39:24;8.15;;;3.83;;
37655;SDS011;23498;50.958;3.124;2023-08-07T02:41:50;9.05;;;4.10;;
37655;SDS011;23498;50.958;3.124;2023-08-07T02:44:16;8.20;;;4.22;;
37655;SDS011;23498;50.958;3.124;2023-08-07T02:46:45;8.15;;;4.10;;
37655;SDS011;23498;50.958;3.124;2023-08-07T02:49:11;8.77;;;4.22;;
37655;SDS011;23498;50.958;3.124;2023-08-07T02:51:37;8.27;;;3.75;;
37655;SDS011;23498;50.958;3.124;2023-08-07T02:54:03;10.48;;;4.60;;
37655;SDS011;23498;50.958;3.124;2023-08-07T02:56:29;7.18;;;3.97;;
37655;SDS011;23498;50.958;3.124;2023-08-07T02:58:55;10.05;;;3.85;;
37655;SDS011;23498;50.958;3.124;2023-08-07T03:01:24;8.35;;;4.10;;
37655;SDS011;23498;50.958;3.124;2023-08-07T03:03:52;9.10;;;4.40;;
37655;SDS011;23498;50.958;3.124;2023-08-07T03:06:18;7.78;;;4.70;;
37655;SDS011;23498;50.958;3.124;2023-08-07T03:08:44;8.38;;;4.38;;
37655;SDS011;23498;50.958;3.124;2023-08-07T03:11:10;10.80;;;3.97;;
37655;SDS011;23498;50.958;3.124;2023-08-07T03:13:36;6.80;;;4.30;;
37655;SDS011;23498;50.958;3.124;2023-08-07T03:16:02;9.68;;;4.45;;
37655;SDS011;23498;50.958;3.124;2023-08-07T03:18:29;8.93;;;4.05;;
37655;SDS011;23498;50.958;3.124;2023-08-07T03:20:55;9.20;;;4.38;;
37655;SDS011;23498;50.958;3.124;2023-08-07T03:23:22;8.32;;;4.38;;
37655;SDS011;23498;50.958;3.124;2023-08-07T03:25:48;8.23;;;4.20;;
37655;SDS011;23498;50.958;3.124;2023-08-07T03:28:14;7.20;;;4.40;;
37655;SDS011;23498;50.958;3.124;2023-08-07T03:30:40;9.27;;;4.28;;
37655;SDS011;23498;50.958;3.124;2023-08-07T03:33:07;7.88;;;4.75;;
37655;SDS011;23498;50.958;3.124;2023-08-07T03:35:33;9.63;;;4.53;;
37655;SDS011;23498;50.958;3.124;2023-08-07T03:37:59;9.98;;;4.90;;
37655;SDS011;23498;50.958;3.124;2023-08-07T03:40:25;7.68;;;4.40;;
37655;SDS011;23498;50.958;3.124;2023-08-07T03:42:51;11.50;;;5.20;;
37655;SDS011;23498;50.958;3.124;2023-08-07T03:45:17;9.18;;;4.80;;
37655;SDS011;23498;50.958;3.124;2023-08-07T03:47:43;9.98;;;5.10;;
37655;SDS011;23498;50.958;3.124;2023-08-07T03:50:09;9.50;;;5.10;;
37655;SDS011;23498;50.958;3.124;2023-08-07T03:52:35;9.93;;;5.38;;
37655;SDS011;23498;50.958;3.124;2023-08-07T03:55:01;11.20;;;5.53;;
37655;SDS011;23498;50.958;3.124;2023-08-07T03:57:27;10.48;;;5.05;;
37655;SDS011;23498;50.958;3.124;2023-08-07T03:59:53;9.13;;;4.93;;
37655;SDS011;23498;50.958;3.124;2023-08-07T04:02:19;10.50;;;5.30;;
37655;SDS011;23498;50.958;3.124;2023-08-07T04:04:45;10.65;;;5.03;;
37655;SDS011;23498;50.958;3.124;2023-08-07T04:07:11;11.57;;;5.57;;
37655;SDS011;23498;50.958;3.124;2023-08-07T04:09:37;8.65;;;5.13;;
37655;SDS011;23498;50.958;3.124;2023-08-07T04:12:03;9.57;;;5.03;;
37655;SDS011;23498;50.958;3.124;2023-08-07T04:14:29;9.48;;;5.10;;
37655;SDS011;23498;50.958;3.124;2023-08-07T04:16:55;8.18;;;5.85;;
37655;SDS011;23498;50.958;3.124;2023-08-07T04:19:21;11.25;;;5.95;;
37655;SDS011;23498;50.958;3.124;2023-08-07T04:21:47;8.88;;;5.20;;
37655;SDS011;23498;50.958;3.124;2023-08-07T04:24:13;10.20;;;5.43;;
37655;SDS011;23498;50.958;3.124;2023-08-07T04:26:39;9.43;;;5.35;;
37655;SDS011;23498;50.958;3.124;2023-08-07T04:29:05;10.07;;;5.75;;
37655;SDS011;23498;50.958;3.124;2023-08-07T04:31:32;9.43;;;5.25;;
37655;SDS011;23498;50.958;3.124;2023-08-07T04:33:59;11.02;;;5.45;;
37655;SDS011;23498;50.958;3.124;2023-08-07T04:36:25;8.50;;;4.90;;
37655;SDS011;23498;50.958;3.124;2023-08-07T04:38:51;13.27;;;5.50;;
37655;SDS011;23498;50.958;3.124;2023-08-07T04:41:17;12.20;;;5.32;;
37655;SDS011;23498;50.958;3.124;2023-08-07T04:43:43;9.45;;;5.25;;
37655;SDS011;23498;50.958;3.124;2023-08-07T04:46:09;11.20;;;5.45;;
37655;SDS011;23498;50.958;3.124;2023-08-07T04:48:36;9.27;;;5.07;;
37655;SDS011;23498;50.958;3.124;2023-08-07T04:51:02;8.90;;;5.30;;
37655;SDS011;23498;50.958;3.124;2023-08-07T04:53:29;9.75;;;5.15;;
37655;SDS011;23498;50.958;3.124;2023-08-07T04:55:55;19.27;;;5.90;;
37655;SDS011;23498;50.958;3.124;2023-08-07T04:58:21;10.18;;;5.78;;
37655;SDS011;23498;50.958;3.124;2023-08-07T05:00:47;10.88;;;5.25;;
37655;SDS011;23498;50.958;3.124;2023-08-07T05:03:13;10.07;;;5.28;;
37655;SDS011;23498;50.958;3.124;2023-08-07T05:05:40;9.85;;;5.13;;
37655;SDS011;23498;50.958;3.124;2023-08-07T05:08:06;10.50;;;5.38;;
37655;SDS011;23498;50.958;3.124;2023-08-07T05:10:32;9.10;;;5.75;;
37655;SDS011;23498;50.958;3.124;2023-08-07T05:12:59;9.85;;;5.68;;
37655;SDS011;23498;50.958;3.124;2023-08-07T05:15:25;11.68;;;5.90;;
37655;SDS011;23498;50.958;3.124;2023-08-07T05:17:55;9.40;;;5.57;;
37655;SDS011;23498;50.958;3.124;2023-08-07T05:20:21;11.80;;;5.75;;
37655;SDS011;23498;50.958;3.124;2023-08-07T05:22:48;8.63;;;5.22;;
37655;SDS011;23498;50.958;3.124;2023-08-07T05:25:14;12.77;;;5.68;;
37655;SDS011;23498;50.958;3.124;2023-08-07T05:27:41;11.15;;;5.72;;
37655;SDS011;23498;50.958;3.124;2023-08-07T05:30:07;10.10;;;5.78;;
37655;SDS011;23498;50.958;3.124;2023-08-07T05:32:33;12.70;;;6.05;;
37655;SDS011;23498;50.958;3.124;2023-08-07T05:35:03;9.82;;;5.45;;
37655;SDS011;23498;50.958;3.124;2023-08-07T05:37:29;14.63;;;5.72;;
37655;SDS011;23498;50.958;3.124;2023-08-07T05:39:56;11.45;;;5.93;;
37655;SDS011;23498;50.958;3.124;2023-08-07T05:42:22;11.73;;;5.88;;
37655;SDS011;23498;50.958;3.124;2023-08-07T05:44:48;9.35;;;5.43;;
37655;SDS011;23498;50.958;3.124;2023-08-07T05:47:14;9.18;;;5.60;;
37655;SDS011;23498;50.958;3.124;2023-08-07T05:49:40;10.15;;;5.80;;
37655;SDS011;23498;50.958;3.124;2023-08-07T05:52:06;13.52;;;6.20;;
37655;SDS011;23498;50.958;3.124;2023-08-07T05:54:33;8.90;;;5.88;;
37655;SDS011;23498;50.958;3.124;2023-08-07T05:56:59;11.30;;;5.85;;
37655;SDS011;23498;50.958;3.124;2023-08-07T05:59:25;14.95;;;6.20;;
37655;SDS011;23498;50.958;3.124;2023-08-07T06:01:51;8.02;;;5.13;;
37655;SDS011;23498;50.958;3.124;2023-08-07T06:04:17;11.20;;;5.40;;
37655;SDS011;23498;50.958;3.124;2023-08-07T06:06:43;9.18;;;5.78;;
37655;SDS011;23498;50.958;3.124;2023-08-07T06:09:11;9.60;;;5.40;;
37655;SDS011;23498;50.958;3.124;2023-08-07T06:11:40;11.35;;;5.82;;
37655;SDS011;23498;50.958;3.124;2023-08-07T06:14:06;9.23;;;5.55;;
37655;SDS011;23498;50.958;3.124;2023-08-07T06:16:35;11.50;;;5.28;;
37655;SDS011;23498;50.958;3.124;2023-08-07T06:19:01;10.85;;;5.15;;
37655;SDS011;23498;50.958;3.124;2023-08-07T06:21:28;10.13;;;5.30;;
37655;SDS011;23498;50.958;3.124;2023-08-07T06:23:54;12.05;;;5.85;;
37655;SDS011;23498;50.958;3.124;2023-08-07T06:26:20;11.45;;;5.57;;
37655;SDS011;23498;50.958;3.124;2023-08-07T06:28:46;8.95;;;5.45;;
37655;SDS011;23498;50.958;3.124;2023-08-07T06:31:12;10.57;;;5.22;;
37655;SDS011;23498;50.958;3.124;2023-08-07T06:33:38;10.00;;;5.55;;
37655;SDS011;23498;50.958;3.124;2023-08-07T06:36:05;11.00;;;5.43;;
37655;SDS011;23498;50.958;3.124;2023-08-07T06:38:31;10.35;;;4.95;;
37655;SDS011;23498;50.958;3.124;2023-08-07T06:40:57;7.47;;;4.50;;
37655;SDS011;23498;50.958;3.124;2023-08-07T06:43:23;7.80;;;4.80;;
37655;SDS011;23498;50.958;3.124;2023-08-07T06:45:50;8.90;;;4.40;;
37655;SDS011;23498;50.958;3.124;2023-08-07T06:48:16;8.38;;;4.20;;
37655;SDS011;23498;50.958;3.124;2023-08-07T06:50:42;7.50;;;4.60;;
37655;SDS011;23498;50.958;3.124;2023-08-07T06:53:08;5.78;;;3.92;;
37655;SDS011;23498;50.958;3.124;2023-08-07T06:55:34;7.78;;;3.70;;
37655;SDS011;23498;50.958;3.124;2023-08-07T06:58:00;9.68;;;4.43;;
37655;SDS011;23498;50.958;3.124;2023-08-07T07:00:26;9.07;;;3.95;;
37655;SDS011;23498;50.958;3.124;2023-08-07T07:02:52;7.43;;;3.53;;
37655;SDS011;23498;50.958;3.124;2023-08-07T07:05:18;8.52;;;4.00;;
37655;SDS011;23498;50.958;3.124;2023-08-07T07:07:44;8.57;;;3.90;;
37655;SDS011;23498;50.958;3.124;2023-08-07T07:10:10;8.63;;;3.80;;
37655;SDS011;23498;50.958;3.124;2023-08-07T07:12:36;5.28;;;3.50;;
37655;SDS011;23498;50.958;3.124;2023-08-07T07:15:02;9.55;;;3.67;;
37655;SDS011;23498;50.958;3.124;2023-08-07T07:17:28;8.02;;;3.30;;
37655;SDS011;23498;50.958;3.124;2023-08-07T07:19:54;7.43;;;3.58;;
37655;SDS011;23498;50.958;3.124;2023-08-07T07:22:22;7.15;;;3.50;;
37655;SDS011;23498;50.958;3.124;2023-08-07T07:24:48;7.95;;;3.25;;
37655;SDS011;23498;50.958;3.124;2023-08-07T07:27:14;8.20;;;3.15;;
37655;SDS011;23498;50.958;3.124;2023-08-07T07:29:40;5.32;;;2.97;;
37655;SDS011;23498;50.958;3.124;2023-08-07T07:32:06;5.63;;;2.70;;
37655;SDS011;23498;50.958;3.124;2023-08-07T07:34:32;4.88;;;2.60;;
37655;SDS011;23498;50.958;3.124;2023-08-07T07:36:58;6.40;;;2.40;;
37655;SDS011;23498;50.958;3.124;2023-08-07T07:39:24;5.22;;;2.05;;
37655;SDS011;23498;50.958;3.124;2023-08-07T07:41:50;4.28;;;1.92;;
37655;SDS011;23498;50.958;3.124;2023-08-07T07:44:16;4.10;;;1.88;;
37655;SDS011;23498;50.958;3.124;2023-08-07T07:46:42;5.07;;;2.10;;
37655;SDS011;23498;50.958;3.124;2023-08-07T07:49:08;8.32;;;2.33;;
37655;SDS011;23498;50.958;3.124;2023-08-07T07:51:34;5.05;;;2.40;;
37655;SDS011;23498;50.958;3.124;2023-08-07T07:54:02;3.72;;;1.70;;
37655;SDS011;23498;50.958;3.124;2023-08-07T07:56:28;5.78;;;1.85;;
37655;SDS011;23498;50.958;3.124;2023-08-07T07:58:54;4.63;;;2.10;;
37655;SDS011;23498;50.958;3.124;2023-08-07T08:01:20;4.90;;;1.92;;
37655;SDS011;23498;50.958;3.124;2023-08-07T08:03:46;4.63;;;1.90;;
37655;SDS011;23498;50.958;3.124;2023-08-07T08:06:12;3.85;;;2.00;;
37655;SDS011;23498;50.958;3.124;2023-08-07T08:08:38;3.65;;;1.80;;
37655;SDS011;23498;50.958;3.124;2023-08-07T08:11:04;4.40;;;1.63;;
37655;SDS011;23498;50.958;3.124;2023-08-07T08:13:30;6.57;;;1.65;;
37655;SDS011;23498;50.958;3.124;2023-08-07T08:15:57;2.83;;;1.42;;
37655;SDS011;23498;50.958;3.124;2023-08-07T08:18:23;4.32;;;1.75;;
37655;SDS011;23498;50.958;3.124;2023-08-07T08:20:49;3.55;;;2.17;;
37655;SDS011;23498;50.958;3.124;2023-08-07T08:23:15;4.40;;;1.33;;
37655;SDS011;23498;50.958;3.124;2023-08-07T08:25:41;4.20;;;1.30;;
37655;SDS011;23498;50.958;3.124;2023-08-07T08:28:07;5.88;;;1.60;;
37655;SDS011;23498;50.958;3.124;2023-08-07T08:30:33;4.93;;;1.63;;
37655;SDS011;23498;50.958;3.124;2023-08-07T08:32:59;2.75;;;1.30;;
37655;SDS011;23498;50.958;3.124;2023-08-07T08:35:25;2.92;;;1.55;;
37655;SDS011;23498;50.958;3.124;2023-08-07T08:37:51;3.78;;;1.60;;
37655;SDS011;23498;50.958;3.124;2023-08-07T08:40:17;5.47;;;1.65;;
37655;SDS011;23498;50.958;3.124;2023-08-07T08:42:44;4.65;;;1.60;;
37655;SDS011;23498;50.958;3.124;2023-08-07T08:45:11;3.17;;;1.08;;
37655;SDS011;23498;50.958;3.124;2023-08-07T08:47:42;2.22;;;1.17;;
37655;SDS011;23498;50.958;3.124;2023-08-07T08:50:12;2.65;;;1.50;;
37655;SDS011;23498;50.958;3.124;2023-08-07T08:52:41;2.40;;;1.40;;
37655;SDS011;23498;50.958;3.124;2023-08-07T08:55:07;3.35;;;1.55;;
37655;SDS011;23498;50.958;3.124;2023-08-07T08:57:33;3.40;;;1.38;;
37655;SDS011;23498;50.958;3.124;2023-08-07T09:00:00;2.92;;;1.50;;
37655;SDS011;23498;50.958;3.124;2023-08-07T09:02:43;3.65;;;1.63;;
37655;SDS011;23498;50.958;3.124;2023-08-07T09:05:09;3.22;;;1.50;;
37655;SDS011;23498;50.958;3.124;2023-08-07T09:07:35;3.15;;;1.40;;
37655;SDS011;23498;50.958;3.124;2023-08-07T09:10:02;3.05;;;1.15;;
37655;SDS011;23498;50.958;3.124;2023-08-07T09:12:29;4.20;;;1.30;;
37655;SDS011;23498;50.958;3.124;2023-08-07T09:14:58;4.45;;;1.50;;
37655;SDS011;23498;50.958;3.124;2023-08-07T09:17:29;2.45;;;1.42;;
37655;SDS011;23498;50.958;3.124;2023-08-07T09:19:55;3.47;;;1.45;;
37655;SDS011;23498;50.958;3.124;2023-08-07T09:22:21;3.10;;;1.13;;
37655;SDS011;23498;50.958;3.124;2023-08-07T09:24:47;2.65;;;1.45;;
37655;SDS011;23498;50.958;3.124;2023-08-07T09:27:14;3.70;;;1.40;;
37655;SDS011;23498;50.958;3.124;2023-08-07T09:29:40;1.90;;;1.15;;
37655;SDS011;23498;50.958;3.124;2023-08-07T09:32:07;3.78;;;1.70;;
37655;SDS011;23498;50.958;3.124;2023-08-07T09:34:33;2.33;;;1.25;;
37655;SDS011;23498;50.958;3.124;2023-08-07T09:36:59;2.85;;;1.50;;
37655;SDS011;23498;50.958;3.124;2023-08-07T09:39:25;5.00;;;1.60;;
37655;SDS011;23498;50.958;3.124;2023-08-07T09:41:52;3.97;;;1.30;;
37655;SDS011;23498;50.958;3.124;2023-08-07T09:44:18;2.63;;;0.95;;
37655;SDS011;23498;50.958;3.124;2023-08-07T09:46:44;4.18;;;1.25;;
37655;SDS011;23498;50.958;3.124;2023-08-07T09:49:10;4.30;;;1.30;;
37655;SDS011;23498;50.958;3.124;2023-08-07T09:51:43;4.25;;;1.33;;
37655;SDS011;23498;50.958;3.124;2023-08-07T09:54:09;3.38;;;1.40;;
37655;SDS011;23498;50.958;3.124;2023-08-07T09:56:35;2.60;;;1.30;;
37655;SDS011;23498;50.958;3.124;2023-08-07T09:59:02;4.32;;;1.95;;
37655;SDS011;23498;50.958;3.124;2023-08-07T10:01:29;4.80;;;1.70;;
37655;SDS011;23498;50.958;3.124;2023-08-07T10:03:55;3.72;;;1.67;;
37655;SDS011;23498;50.958;3.124;2023-08-07T10:06:21;2.90;;;1.48;;
37655;SDS011;23498;50.958;3.124;2023-08-07T10:08:48;4.90;;;1.30;;
37655;SDS011;23498;50.958;3.124;2023-08-07T10:11:14;2.22;;;1.10;;
37655;SDS011;23498;50.958;3.124;2023-08-07T10:13:41;3.78;;;1.40;;
37655;SDS011;23498;50.958;3.124;2023-08-07T10:16:07;2.03;;;1.13;;
37655;SDS011;23498;50.958;3.124;2023-08-07T10:18:33;3.58;;;1.20;;
37655;SDS011;23498;50.958;3.124;2023-08-07T10:21:00;1.90;;;0.90;;
37655;SDS011;23498;50.958;3.124;2023-08-07T10:23:27;2.38;;;1.10;;
37655;SDS011;23498;50.958;3.124;2023-08-07T10:25:53;2.30;;;1.00;;
37655;SDS011;23498;50.958;3.124;2023-08-07T10:28:19;3.50;;;1.17;;
37655;SDS011;23498;50.958;3.124;2023-08-07T10:30:46;2.25;;;0.95;;
37655;SDS011;23498;50.958;3.124;2023-08-07T10:33:13;2.33;;;1.10;;
37655;SDS011;23498;50.958;3.124;2023-08-07T10:35:44;3.90;;;1.10;;
37655;SDS011;23498;50.958;3.124;2023-08-07T10:38:11;2.75;;;1.13;;
37655;SDS011;23498;50.958;3.124;2023-08-07T10:41:12;3.08;;;1.10;;
37655;SDS011;23498;50.958;3.124;2023-08-07T10:43:29;3.38;;;1.50;;
37655;SDS011;23498;50.958;3.124;2023-08-07T10:46:02;4.00;;;1.20;;
37655;SDS011;23498;50.958;3.124;2023-08-07T10:48:29;2.25;;;1.10;;
37655;SDS011;23498;50.958;3.124;2023-08-07T10:50:56;2.30;;;1.30;;
37655;SDS011;23498;50.958;3.124;2023-08-07T10:53:35;2.63;;;1.00;;
37655;SDS011;23498;50.958;3.124;2023-08-07T10:56:03;3.60;;;1.10;;
37655;SDS011;23498;50.958;3.124;2023-08-07T10:58:30;2.80;;;1.02;;
37655;SDS011;23498;50.958;3.124;2023-08-07T11:03:42;2.05;;;0.88;;
37655;SDS011;23498;50.958;3.124;2023-08-07T11:06:09;1.98;;;0.90;;
37655;SDS011;23498;50.958;3.124;2023-08-07T11:08:35;2.90;;;1.13;;
37655;SDS011;23498;50.958;3.124;2023-08-07T11:11:05;3.30;;;1.20;;
37655;SDS011;23498;50.958;3.124;2023-08-07T11:13:35;3.75;;;1.30;;
37655;SDS011;23498;50.958;3.124;2023-08-07T11:16:01;1.98;;;1.00;;
37655;SDS011;23498;50.958;3.124;2023-08-07T11:18:28;2.03;;;1.00;;
37655;SDS011;23498;50.958;3.124;2023-08-07T11:20:54;2.30;;;0.90;;
37655;SDS011;23498;50.958;3.124;2023-08-07T11:23:27;1.80;;;0.77;;
37655;SDS011;23498;50.958;3.124;2023-08-07T11:25:54;3.55;;;1.00;;
37655;SDS011;23498;50.958;3.124;2023-08-07T11:28:21;2.38;;;0.98;;
37655;SDS011;23498;50.958;3.124;2023-08-07T11:30:48;4.03;;;1.33;;
37655;SDS011;23498;50.958;3.124;2023-08-07T11:33:16;2.38;;;0.90;;
37655;SDS011;23498;50.958;3.124;2023-08-07T11:35:43;3.40;;;0.98;;
37655;SDS011;23498;50.958;3.124;2023-08-07T11:38:09;3.45;;;1.23;;
37655;SDS011;23498;50.958;3.124;2023-08-07T11:40:35;2.75;;;1.02;;
37655;SDS011;23498;50.958;3.124;2023-08-07T11:43:01;1.42;;;0.75;;
37655;SDS011;23498;50.958;3.124;2023-08-07T11:45:27;2.50;;;0.80;;
37655;SDS011;23498;50.958;3.124;2023-08-07T11:47:53;1.95;;;0.80;;
37655;SDS011;23498;50.958;3.124;2023-08-07T11:50:24;1.65;;;0.85;;
37655;SDS011;23498;50.958;3.124;2023-08-07T11:52:50;2.45;;;0.95;;
37655;SDS011;23498;50.958;3.124;2023-08-07T11:55:16;2.83;;;1.08;;
37655;SDS011;23498;50.958;3.124;2023-08-07T11:57:45;4.05;;;1.17;;
37655;SDS011;23498;50.958;3.124;2023-08-07T12:00:12;4.55;;;1.23;;
37655;SDS011;23498;50.958;3.124;2023-08-07T12:02:41;2.05;;;0.80;;
37655;SDS011;23498;50.958;3.124;2023-08-07T12:05:11;3.33;;;1.30;;
37655;SDS011;23498;50.958;3.124;2023-08-07T12:07:37;2.13;;;0.70;;
37655;SDS011;23498;50.958;3.124;2023-08-07T12:10:07;1.80;;;0.73;;
37655;SDS011;23498;50.958;3.124;2023-08-07T12:12:37;1.75;;;0.90;;
37655;SDS011;23498;50.958;3.124;2023-08-07T12:15:12;2.03;;;1.23;;
37655;SDS011;23498;50.958;3.124;2023-08-07T12:17:38;4.90;;;1.20;;
37655;SDS011;23498;50.958;3.124;2023-08-07T12:20:05;2.90;;;0.90;;
37655;SDS011;23498;50.958;3.124;2023-08-07T12:22:36;2.13;;;0.80;;
37655;SDS011;23498;50.958;3.124;2023-08-07T12:25:02;2.60;;;0.90;;
37655;SDS011;23498;50.958;3.124;2023-08-07T12:27:29;1.58;;;0.90;;
37655;SDS011;23498;50.958;3.124;2023-08-07T12:29:55;1.95;;;0.77;;
37655;SDS011;23498;50.958;3.124;2023-08-07T12:32:21;2.03;;;0.90;;
37655;SDS011;23498;50.958;3.124;2023-08-07T12:34:47;1.73;;;0.77;;
37655;SDS011;23498;50.958;3.124;2023-08-07T12:37:15;3.17;;;1.02;;
37655;SDS011;23498;50.958;3.124;2023-08-07T12:39:41;2.72;;;0.90;;
37655;SDS011;23498;50.958;3.124;2023-08-07T12:42:07;1.77;;;0.80;;
37655;SDS011;23498;50.958;3.124;2023-08-07T12:44:33;2.08;;;0.77;;
37655;SDS011;23498;50.958;3.124;2023-08-07T12:46:59;1.40;;;0.75;;
37655;SDS011;23498;50.958;3.124;2023-08-07T12:49:25;3.50;;;0.90;;
37655;SDS011;23498;50.958;3.124;2023-08-07T12:51:51;2.28;;;0.80;;
37655;SDS011;23498;50.958;3.124;2023-08-07T12:54:18;3.88;;;1.00;;
37655;SDS011;23498;50.958;3.124;2023-08-07T12:56:44;3.25;;;0.95;;
37655;SDS011;23498;50.958;3.124;2023-08-07T12:59:10;1.77;;;0.70;;
37655;SDS011;23498;50.958;3.124;2023-08-07T13:01:36;2.10;;;0.73;;
37655;SDS011;23498;50.958;3.124;2023-08-07T13:04:02;2.72;;;0.82;;
37655;SDS011;23498;50.958;3.124;2023-08-07T13:06:30;2.72;;;1.10;;
37655;SDS011;23498;50.958;3.124;2023-08-07T13:08:56;2.53;;;0.98;;
37655;SDS011;23498;50.958;3.124;2023-08-07T13:11:22;3.15;;;1.52;;
37655;SDS011;23498;50.958;3.124;2023-08-07T13:13:48;2.17;;;1.02;;
37655;SDS011;23498;50.958;3.124;2023-08-07T13:16:14;1.48;;;0.90;;
37655;SDS011;23498;50.958;3.124;2023-08-07T13:18:40;2.83;;;1.17;;
37655;SDS011;23498;50.958;3.124;2023-08-07T13:21:06;2.55;;;1.30;;
37655;SDS011;23498;50.958;3.124;2023-08-07T13:23:32;3.08;;;1.75;;
37655;SDS011;23498;50.958;3.124;2023-08-07T13:25:58;3.53;;;1.50;;
37655;SDS011;23498;50.958;3.124;2023-08-07T13:28:24;3.50;;;1.80;;
37655;SDS011;23498;50.958;3.124;2023-08-07T13:30:50;3.28;;;1.92;;
37655;SDS011;23498;50.958;3.124;2023-08-07T13:33:18;3.55;;;1.80;;
37655;SDS011;23498;50.958;3.124;2023-08-07T13:35:45;4.13;;;1.98;;
37655;SDS011;23498;50.958;3.124;2023-08-07T13:38:11;5.30;;;2.10;;
37655;SDS011;23498;50.958;3.124;2023-08-07T13:40:39;4.15;;;1.90;;
37655;SDS011;23498;50.958;3.124;2023-08-07T13:43:05;4.55;;;1.75;;
37655;SDS011;23498;50.958;3.124;2023-08-07T13:45:34;4.03;;;1.27;;
37655;SDS011;23498;50.958;3.124;2023-08-07T13:48:00;2.40;;;1.38;;
37655;SDS011;23498;50.958;3.124;2023-08-07T13:50:27;3.03;;;1.58;;
37655;SDS011;23498;50.958;3.124;2023-08-07T13:52:53;3.42;;;1.70;;
37655;SDS011;23498;50.958;3.124;2023-08-07T13:55:19;3.42;;;1.40;;
37655;SDS011;23498;50.958;3.124;2023-08-07T13:57:45;3.22;;;1.40;;
37655;SDS011;23498;50.958;3.124;2023-08-07T14:00:11;5.15;;;1.77;;
37655;SDS011;23498;50.958;3.124;2023-08-07T14:02:37;2.83;;;1.30;;
37655;SDS011;23498;50.958;3.124;2023-08-07T14:05:03;5.07;;;1.60;;
37655;SDS011;23498;50.958;3.124;2023-08-07T14:07:30;3.67;;;1.70;;
37655;SDS011;23498;50.958;3.124;2023-08-07T14:09:56;2.90;;;1.23;;
37655;SDS011;23498;50.958;3.124;2023-08-07T14:12:22;2.75;;;1.40;;
37655;SDS011;23498;50.958;3.124;2023-08-07T14:14:48;5.47;;;1.50;;
37655;SDS011;23498;50.958;3.124;2023-08-07T14:17:14;2.70;;;1.60;;
37655;SDS011;23498;50.958;3.124;2023-08-07T14:19:40;4.22;;;1.70;;
37655;SDS011;23498;50.958;3.124;2023-08-07T14:22:06;2.67;;;1.38;;
37655;SDS011;23498;50.958;3.124;2023-08-07T14:24:31;4.68;;;1.88;;
37655;SDS011;23498;50.958;3.124;2023-08-07T14:26:58;4.20;;;1.50;;
37655;SDS011;23498;50.958;3.124;2023-08-07T14:29:24;3.88;;;1.90;;
37655;SDS011;23498;50.958;3.124;2023-08-07T14:31:50;4.40;;;1.90;;
37655;SDS011;23498;50.958;3.124;2023-08-07T14:34:16;2.85;;;1.42;;
37655;SDS011;23498;50.958;3.124;2023-08-07T14:36:42;4.00;;;1.90;;
37655;SDS011;23498;50.958;3.124;2023-08-07T14:39:08;6.57;;;1.70;;
37655;SDS011;23498;50.958;3.124;2023-08-07T14:41:34;3.67;;;1.85;;
37655;SDS011;23498;50.958;3.124;2023-08-07T14:44:00;3.47;;;1.75;;
37655;SDS011;23498;50.958;3.124;2023-08-07T14:46:26;5.40;;;1.60;;
37655;SDS011;23498;50.958;3.124;2023-08-07T14:48:52;2.45;;;1.40;;